Main page
METAR-TAF:

METAR-TAF

Airports :

Copenhagen Airport

Copenhagen, Denmark

latitude: 55-37N, longitude: 012-39E, elevation: 5 m

Current weather observation

The report was made 20 minutes ago, at 21:50 UTC
Wind 6 kt from the West
Temperature 1°C
Humidity 100%
Pressure 1004 hPa
Visibility: 9000 m

METAR: EKCH 252150Z AUTO 28006KT 9000 FEW012/// BKN044/// 01/01 Q1004 TEMPO BKN008

Time: 23:10 (22:10 UTC)

Forecast

The report was made 5 hours and 5 minutes ago, at 17:05 UTC
Forecast valid from 25 at 18 UTC to 26 at 18 UTC
Wind 8 kt from the West
Visibility: 9000 m
Broken clouds at a height of 2000 ft
Temporary
from 25 at 18 UTC to 26 at 01 UTC
Visibility: 4000 m
Broken clouds at a height of 800 ft
Few clouds at a height of 1500 ft, Cumulonimbus.
light snow showers, rain
Temporary
from 26 at 01 UTC to 26 at 10 UTC
Visibility: 3000 m
Broken clouds at a height of 600 ft
mist

TAF: EKCH 251705Z 2518/2618 28008KT 9000 BKN020 TEMPO 2518/2601 4000 -SHSNRA BKN008 FEW015CB TEMPO 2601/2610 3000 BR BKN006

Weather observations and forecasts of more than 4000 airports (METAR and TAF reports).

The available stations are represented by yellow and red dots on the map.

Hover mouse over dot to see the name of the station.

Then click to see weather observations and forecasts.

To change the map : click on the green buttons with a black cross to zoom in, on the green button with a dash to zoom out, or on the green arrows for adjacent maps.


METAR-TAF: